Time;durP1;ratioP1;P1;durP2;ratioP2;P2;SDS_P1;SDS_P2;PMS_P1;PMS_P2;Temp;Humidity;BMP_temperature;BMP_pressure;BME280_temperature;BME280_humidity;BME280_pressure;Samples;Min_cycle;Max_cycle;Signal;HPM_P1;HPM_P2
2021/12/11 00:02:17;;;;;;;70.60;41.20;;;;;;;1.20;89.46;96392.17;108102;1271;59639;-82
2021/12/11 00:04:50;;;;;;;86.80;48.50;;;;;;;1.19;89.71;96398.58;108135;1272;59731;-82
2021/12/11 00:07:20;;;;;;;60.40;33.90;;;;;;;1.19;89.78;96408.52;108151;1271;70845;-81
2021/12/11 00:10:18;;;;;;;53.20;32.70;;;;;;;1.22;89.60;96415.09;108162;1270;67967;-81
2021/12/11 00:12:53;;;;;;;105.40;52.70;;;;;;;1.23;89.18;96416.73;108037;1272;67623;-81
2021/12/11 00:15:30;;;;;;;90.60;48.20;;;;;;;1.20;89.71;96416.38;108157;1268;59697;-68
2021/12/11 00:18:06;;;;;;;127.60;56.50;;;;;;;1.19;90.22;96414.87;108133;1272;59757;-82
2021/12/11 00:20:41;;;;;;;127.20;57.00;;;;;;;1.18;90.47;96412.55;108339;1268;71608;-81
2021/12/11 00:23:19;;;;;;;112.00;54.50;;;;;;;1.15;90.55;96411.15;108131;1272;68478;-76
2021/12/11 00:25:48;;;;;;;81.00;44.40;;;;;;;1.15;90.57;96417.16;108066;1272;69524;-77
2021/12/11 00:28:17;;;;;;;72.40;41.40;;;;;;;1.15;90.58;96417.83;108083;1272;59749;-82
2021/12/11 00:30:47;;;;;;;78.40;43.50;;;;;;;1.16;90.50;96418.50;108133;1272;59719;-75
2021/12/11 00:33:19;;;;;;;;;;;;;;;1.16;90.49;96424.17;108086;1272;70886;-72
2021/12/11 00:35:50;;;;;;;44.60;28.10;;;;;;;1.16;90.47;96430.34;108150;1270;67872;-68
2021/12/11 00:38:34;;;;;;;57.40;33.10;;;;;;;1.18;90.37;96434.70;108083;1272;69487;-69
2021/12/11 00:41:08;;;;;;;107.90;50.40;;;;;;;1.18;90.46;96429.38;108068;1270;59728;-69
2021/12/11 00:43:40;;;;;;;63.50;37.10;;;;;;;1.18;90.66;96427.81;107717;1272;59793;-80
2021/12/11 00:46:17;;;;;;;52.30;31.70;;;;;;;1.19;90.67;96426.91;108157;1272;70650;-82
2021/12/11 00:48:47;;;;;;;58.50;34.00;;;;;;;1.22;90.58;96430.23;108105;1272;68664;-83
2021/12/11 00:51:20;;;;;;;96.60;45.30;;;;;;;1.24;90.49;96434.04;108124;1272;69459;-69
2021/12/11 00:53:57;;;;;;;83.20;41.20;;;;;;;1.23;90.56;96430.65;108177;1272;59756;-81
2021/12/11 00:56:33;;;;;;;59.20;32.90;;;;;;;1.22;90.73;96434.30;108100;1272;59636;-74
2021/12/11 00:59:08;;;;;;;70.50;38.10;;;;;;;1.24;90.78;96435.94;108166;1272;69770;-82
2021/12/11 01:01:51;;;;;;;85.60;40.80;;;;;;;1.24;90.80;96434.02;108152;1272;68695;-76
2021/12/11 01:04:26;;;;;;;71.00;35.60;;;;;;;1.24;90.87;96433.52;108150;1271;68639;-74
2021/12/11 01:06:58;;;;;;;79.70;37.00;;;;;;;1.23;90.83;96431.86;108158;1272;59790;-73
2021/12/11 01:09:32;;;;;;;90.30;39.00;;;;;;;1.21;90.77;96436.79;108137;1272;59710;-76
2021/12/11 01:12:12;;;;;;;96.60;37.30;;;;;;;1.18;90.70;96440.88;108229;1269;69933;-76
2021/12/11 01:14:59;;;;;;;50.80;27.40;;;;;;;1.15;90.76;96448.23;108034;1271;67666;-78
2021/12/11 01:17:45;;;;;;;28.20;16.10;;;;;;;1.12;90.59;96454.39;108167;1270;68819;-71
2021/12/11 01:20:37;;;;;;;41.00;19.90;;;;;;;1.11;90.54;96462.84;107916;1274;59809;-73
2021/12/11 01:23:27;;;;;;;19.10;11.60;;;;;;;1.11;90.35;96465.09;108213;1269;59697;-75
2021/12/11 01:26:01;;;;;;;32.40;21.30;;;;;;;1.11;90.21;96467.50;108240;1270;71537;-76
2021/12/11 01:28:33;;;;;;;31.90;19.60;;;;;;;1.09;90.15;96469.11;108141;1271;67649;-77
2021/12/11 01:31:06;;;;;;;40.80;22.70;;;;;;;1.09;90.14;96474.47;108136;1271;69439;-79
2021/12/11 01:33:36;;;;;;;38.80;23.40;;;;;;;1.07;90.10;96480.76;108114;1272;59760;-78
2021/12/11 01:36:06;;;;;;;34.40;21.80;;;;;;;1.04;90.01;96486.20;108088;1272;59719;-76
2021/12/11 01:38:39;;;;;;;26.90;19.80;;;;;;;1.03;89.92;96490.70;108053;1272;73177;-67
2021/12/11 01:41:16;;;;;;;66.80;30.50;;;;;;;1.02;89.92;96486.15;108108;1269;68600;-77
2021/12/11 01:43:49;;;;;;;35.70;22.90;;;;;;;0.97;90.05;96486.34;107994;1271;69262;-76
2021/12/11 01:46:23;;;;;;;52.10;30.00;;;;;;;0.94;90.02;96483.61;108119;1272;59760;-79
2021/12/11 01:49:00;;;;;;;37.10;22.30;;;;;;;0.90;90.06;96476.95;108046;1272;59717;-75
2021/12/11 01:51:36;;;;;;;39.50;23.30;;;;;;;0.88;89.64;96477.39;108116;1271;70608;-81
2021/12/11 01:54:16;;;;;;;65.10;31.80;;;;;;;0.84;89.62;96472.93;108204;1269;67214;-75
2021/12/11 01:56:49;;;;;;;;;;;;;;;0.79;89.84;96473.52;108201;1272;68581;-79
2021/12/11 01:59:27;;;;;;;41.90;26.50;;;;;;;0.77;89.93;96472.39;108237;1269;59769;-71
2021/12/11 02:02:15;;;;;;;40.10;23.80;;;;;;;0.75;90.65;96467.19;108243;1272;59742;-77
2021/12/11 02:04:50;;;;;;;42.80;21.70;;;;;;;0.78;90.41;96466.36;108325;1269;71432;-78
2021/12/11 02:07:25;;;;;;;46.70;26.60;;;;;;;0.78;89.99;96463.09;108138;1271;67454;-79
2021/12/11 02:09:58;;;;;;;60.40;30.90;;;;;;;0.75;90.35;96460.17;108010;1272;69428;-75
2021/12/11 02:12:35;;;;;;;35.70;21.70;;;;;;;0.74;90.62;96458.69;108353;1268;59776;-74
2021/12/11 02:15:31;;;;;;;92.30;33.90;;;;;;;0.78;90.07;96462.07;108111;1269;59707;-77
2021/12/11 02:18:20;;;;;;;71.90;29.90;;;;;;;0.77;89.73;96466.61;108215;1264;71146;-74
2021/12/11 02:20:59;;;;;;;65.90;30.10;;;;;;;0.75;89.81;96467.92;108137;1272;67860;-72
2021/12/11 02:23:29;;;;;;;51.70;30.70;;;;;;;0.70;90.30;96467.79;108325;1269;68280;-81
2021/12/11 02:26:03;;;;;;;51.80;31.20;;;;;;;0.70;90.97;96461.63;108214;1269;59764;-77
2021/12/11 02:28:51;;;;;;;57.80;29.60;;;;;;;0.70;91.18;96461.31;108174;1269;59700;-67
2021/12/11 02:31:30;;;;;;;65.80;28.20;;;;;;;0.70;91.59;96457.48;108138;1269;69560;-77
2021/12/11 02:34:33;;;;;;;107.10;33.60;;;;;;;0.72;91.40;96451.75;108216;1269;67641;-81
2021/12/11 02:37:13;;;;;;;49.70;23.70;;;;;;;0.70;91.47;96445.17;108139;1272;68227;-69
2021/12/11 02:40:00;;;;;;;73.50;31.40;;;;;;;0.70;91.46;96443.12;108051;1271;59766;-82
2021/12/11 02:42:45;;;;;;;64.20;24.70;;;;;;;0.66;91.51;96448.60;108145;1272;59700;-81
2021/12/11 02:45:28;;;;;;;109.90;31.70;;;;;;;0.63;91.42;96458.54;108121;1272;70784;-75
2021/12/11 02:48:13;;;;;;;55.00;24.70;;;;;;;0.58;91.65;96461.20;108106;1271;68614;-74
2021/12/11 02:50:52;;;;;;;36.50;19.40;;;;;;;0.58;91.56;96454.50;108090;1271;69425;-80
2021/12/11 02:53:29;;;;;;;65.40;26.90;;;;;;;0.57;91.74;96450.25;107893;1274;59773;-79
2021/12/11 02:56:11;;;;;;;41.40;22.50;;;;;;;0.57;91.96;96454.70;107977;1274;59766;-82
2021/12/11 02:58:47;;;;;;;47.10;20.40;;;;;;;0.62;91.91;96461.85;108133;1272;71509;-82
2021/12/11 03:01:32;;;;;;;79.00;23.90;;;;;;;0.64;91.78;96465.33;108032;1271;68605;-79
2021/12/11 03:04:17;;;;;;;73.90;22.70;;;;;;;0.67;91.87;96472.59;108051;1271;69405;-78
2021/12/11 03:06:49;;;;;;;62.80;22.20;;;;;;;0.70;91.90;96473.27;107955;1272;59784;-76
2021/12/11 03:09:24;;;;;;;37.40;18.50;;;;;;;0.72;91.91;96472.48;108056;1271;59769;-67
2021/12/11 03:11:56;;;;;;;72.10;24.80;;;;;;;0.73;91.85;96465.05;108152;1271;69811;-66
2021/12/11 03:14:27;;;;;;;44.20;19.00;;;;;;;0.74;91.84;96461.77;108175;1272;67822;-66
2021/12/11 03:16:58;;;;;;;38.10;19.10;;;;;;;0.76;91.73;96464.24;107884;1272;68591;-74
2021/12/11 03:19:30;;;;;;;29.70;15.10;;;;;;;0.81;91.83;96465.02;107947;1271;59691;-69
2021/12/11 03:22:03;;;;;;;19.20;10.90;;;;;;;0.85;91.73;96472.89;107974;1272;59704;-81
2021/12/11 03:24:34;;;;;;;16.70;10.70;;;;;;;0.90;91.52;96474.73;107847;1274;71558;-80
2021/12/11 03:27:03;;;;;;;21.70;11.70;;;;;;;0.91;91.10;96479.09;108012;1275;68068;-79
2021/12/11 03:29:33;;;;;;;140.00;26.60;;;;;;;0.91;90.94;96479.48;107843;1274;68527;-74
2021/12/11 03:32:08;;;;;;;24.60;15.10;;;;;;;0.85;91.22;96484.90;108124;1271;59760;-80
2021/12/11 03:34:39;;;;;;;55.80;21.50;;;;;;;0.84;91.36;96488.23;107836;1272;59747;-81
2021/12/11 03:37:11;;;;;;;32.00;16.10;;;;;;;0.80;91.52;96486.70;108082;1272;71585;-80
2021/12/11 03:39:43;;;;;;;72.20;23.00;;;;;;;0.76;91.56;96494.23;108021;1271;68510;-77
2021/12/11 03:42:21;;;;;;;264.20;39.70;;;;;;;0.69;91.74;96512.92;108133;1271;68781;-77
2021/12/11 03:44:52;;;;;;;333.70;48.80;;;;;;;0.58;92.15;96527.00;107944;1273;59703;-76
2021/12/11 03:47:27;;;;;;;59.10;21.40;;;;;;;0.50;92.37;96537.51;107997;1274;59780;-75
2021/12/11 03:49:57;;;;;;;212.70;36.70;;;;;;;0.46;92.55;96542.97;108050;1272;71564;-76
2021/12/11 03:52:26;;;;;;;129.20;30.50;;;;;;;0.39;92.73;96546.73;108067;1271;68560;-81
2021/12/11 03:54:56;;;;;;;204.50;38.50;;;;;;;0.36;93.00;96542.29;108131;1272;68899;-82
2021/12/11 03:57:28;;;;;;;73.20;28.40;;;;;;;0.37;93.14;96533.29;107912;1274;60103;-72
2021/12/11 03:59:58;;;;;;;35.90;18.50;;;;;;;0.43;93.35;96533.20;107963;1274;59694;-68
2021/12/11 04:02:32;;;;;;;25.40;13.70;;;;;;;0.49;93.40;96535.14;108008;1272;70970;-80
2021/12/11 04:05:05;;;;;;;49.60;20.50;;;;;;;0.58;93.38;96538.52;108147;1271;68087;-67
2021/12/11 04:07:42;;;;;;;42.50;20.10;;;;;;;0.63;93.37;96539.45;108023;1273;68620;-75
2021/12/11 04:10:15;;;;;;;121.40;29.30;;;;;;;0.67;93.34;96531.02;108128;1272;59755;-75
2021/12/11 04:12:48;;;;;;;127.00;29.70;;;;;;;0.67;93.24;96509.95;108078;1274;59701;-81
2021/12/11 04:15:18;;;;;;;124.50;29.60;;;;;;;0.64;93.20;96505.98;108227;1271;71454;-76
2021/12/11 04:17:47;;;;;;;;;;;;;;;0.64;93.22;96505.66;108152;1271;69122;-77
2021/12/11 04:20:20;;;;;;;74.30;24.90;;;;;;;0.63;93.20;96512.37;108016;1271;69489;-74
2021/12/11 04:22:50;;;;;;;100.30;24.10;;;;;;;0.65;93.26;96517.92;107927;1274;59767;-76
2021/12/11 04:25:24;;;;;;;83.90;27.00;;;;;;;0.68;93.29;96514.34;107950;1275;60130;-76
2021/12/11 04:27:54;;;;;;;95.20;27.50;;;;;;;0.71;93.45;96510.98;108097;1271;70668;-77
2021/12/11 04:30:25;;;;;;;35.10;18.30;;;;;;;0.73;93.52;96509.84;108050;1274;68588;-78
2021/12/11 04:32:58;;;;;;;35.50;15.10;;;;;;;0.79;93.45;96508.37;108125;1271;68735;-78
2021/12/11 04:35:29;;;;;;;77.00;26.20;;;;;;;0.83;93.20;96506.79;108106;1272;59717;-75
2021/12/11 04:38:05;;;;;;;39.20;19.50;;;;;;;0.81;93.20;96482.02;108109;1272;59732;-81
2021/12/11 04:40:39;;;;;;;44.00;19.00;;;;;;;0.78;93.21;96463.96;108047;1271;71865;-81
2021/12/11 04:43:15;;;;;;;30.40;14.90;;;;;;;0.79;93.02;96485.69;108040;1275;67745;-70
2021/12/11 04:45:59;;;;;;;26.00;14.70;;;;;;;0.81;92.99;96508.59;108209;1272;68293;-80
2021/12/11 05:05:24;;;;;;;30.50;18.00;;;;;;;0.96;92.68;96509.23;108068;1272;59785;-82
2021/12/11 05:08:12;;;;;;;30.10;17.50;;;;;;;0.99;92.14;96515.05;108117;1272;70600;-80
2021/12/11 05:10:53;;;;;;;31.90;17.90;;;;;;;1.00;91.75;96517.94;108169;1272;68785;-79
2021/12/11 05:13:25;;;;;;;39.70;22.30;;;;;;;1.00;91.56;96519.85;108140;1272;69179;-77
2021/12/11 05:16:00;;;;;;;31.30;17.90;;;;;;;0.96;91.76;96517.45;108070;1272;59795;-78
2021/12/11 05:18:32;;;;;;;58.00;27.70;;;;;;;0.97;91.86;96516.20;108224;1271;59676;-73
2021/12/11 05:21:06;;;;;;;27.30;15.60;;;;;;;0.99;91.97;96513.90;108237;1272;71474;-78
2021/12/11 05:23:36;;;;;;;38.30;18.50;;;;;;;1.02;91.74;96507.91;108226;1272;68041;-75
2021/12/11 05:26:06;;;;;;;24.10;14.30;;;;;;;1.01;91.82;96512.77;108163;1270;67697;-83
2021/12/11 05:28:36;;;;;;;58.50;27.30;;;;;;;1.05;91.84;96519.11;108212;1271;59674;-82
2021/12/11 05:31:08;;;;;;;42.80;22.90;;;;;;;1.06;92.12;96524.56;108142;1272;59694;-75
2021/12/11 05:33:40;;;;;;;56.30;26.60;;;;;;;1.07;92.37;96520.56;108108;1271;71605;-80
2021/12/11 05:36:13;;;;;;;89.60;35.10;;;;;;;1.09;92.55;96518.75;108154;1269;67680;-73
2021/12/11 05:38:47;;;;;;;71.90;29.80;;;;;;;1.09;92.68;96518.73;108133;1272;70060;-81
2021/12/11 05:41:20;;;;;;;43.20;20.30;;;;;;;1.10;93.00;96522.11;108121;1271;59703;-77
2021/12/11 05:43:51;;;;;;;37.70;17.70;;;;;;;1.13;92.90;96533.98;108122;1271;59832;-74
2021/12/11 05:46:22;;;;;;;57.10;24.80;;;;;;;1.15;92.71;96531.65;108374;1269;70833;-72
2021/12/11 05:48:52;;;;;;;88.60;28.60;;;;;;;1.15;92.91;96535.07;108214;1269;68635;-76
2021/12/11 05:51:23;;;;;;;37.00;16.60;;;;;;;1.16;93.11;96533.66;108306;1269;68863;-79
2021/12/11 05:53:58;;;;;;;58.50;21.50;;;;;;;1.16;93.07;96534.66;108306;1269;59729;-81
2021/12/11 05:56:34;;;;;;;23.80;13.00;;;;;;;1.15;93.04;96532.33;108147;1272;59770;-82
2021/12/11 05:59:10;;;;;;;21.90;12.50;;;;;;;1.19;92.70;96539.35;108169;1270;71598;-76
2021/12/11 06:01:45;;;;;;;48.00;17.40;;;;;;;1.17;92.46;96545.61;107953;1275;67720;-71
2021/12/11 06:04:19;;;;;;;24.40;14.80;;;;;;;1.17;92.50;96559.66;108064;1272;68674;-80
2021/12/11 06:06:48;;;;;;;34.60;16.10;;;;;;;1.20;92.20;96566.40;108149;1272;59696;-73
2021/12/11 06:09:20;;;;;;;21.80;12.50;;;;;;;1.22;91.96;96576.43;108126;1272;59783;-79
2021/12/11 06:11:53;;;;;;;97.40;17.50;;;;;;;1.26;91.72;96581.55;108188;1272;71594;-70
2021/12/11 06:14:23;;;;;;;19.20;10.60;;;;;;;1.23;91.74;96588.60;108160;1272;68569;-73
2021/12/11 06:16:56;;;;;;;57.60;15.20;;;;;;;1.23;91.55;96593.71;108327;1272;68626;-67
2021/12/11 06:19:28;;;;;;;49.50;16.20;;;;;;;1.19;91.58;96597.84;108231;1271;59777;-71
2021/12/11 06:21:58;;;;;;;40.30;20.40;;;;;;;1.18;91.61;96607.19;108123;1272;59744;-74
2021/12/11 06:24:29;;;;;;;46.30;22.10;;;;;;;1.16;91.73;96604.52;107905;1272;71586;-79
2021/12/11 06:27:00;;;;;;;20.10;10.40;;;;;;;1.16;91.93;96602.33;108226;1271;68001;-79
2021/12/11 06:29:29;;;;;;;21.10;11.50;;;;;;;1.20;91.80;96602.62;108181;1272;69448;-80
2021/12/11 06:31:58;;;;;;;21.00;10.20;;;;;;;1.18;91.75;96606.66;108105;1272;59695;-79
2021/12/11 06:34:27;;;;;;;14.50;9.20;;;;;;;1.21;91.71;96615.45;108021;1272;59783;-69
2021/12/11 06:36:56;;;;;;;10.10;6.20;;;;;;;1.23;91.68;96623.08;108066;1272;70771;-80
2021/12/11 06:39:25;;;;;;;23.80;7.80;;;;;;;1.26;91.59;96625.52;108098;1271;67880;-75
2021/12/11 06:41:59;;;;;;;61.30;11.30;;;;;;;1.21;91.55;96632.98;108098;1272;69539;-77
2021/12/11 06:44:28;;;;;;;33.70;10.80;;;;;;;1.18;91.81;96642.57;108008;1274;59786;-73
2021/12/11 06:47:00;;;;;;;10.90;7.10;;;;;;;1.22;91.69;96650.05;108108;1271;59760;-76
2021/12/11 06:49:32;;;;;;;14.50;8.80;;;;;;;1.22;91.65;96655.88;108108;1271;71772;-72
2021/12/11 06:52:05;;;;;;;87.20;15.00;;;;;;;1.23;91.67;96673.73;108163;1272;68449;-73
2021/12/11 06:54:34;;;;;;;15.40;8.90;;;;;;;1.23;91.86;96686.92;108057;1272;69288;-70
2021/12/11 06:57:04;;;;;;;13.20;8.20;;;;;;;1.30;91.75;96699.31;108084;1275;59770;-71
2021/12/11 06:59:33;;;;;;;61.50;11.70;;;;;;;1.32;91.68;96705.39;108064;1272;59728;-68
2021/12/11 07:02:03;;;;;;;12.50;6.90;;;;;;;1.30;91.81;96711.67;108084;1272;71634;-74
2021/12/11 07:04:33;;;;;;;51.30;9.40;;;;;;;1.34;91.70;96714.07;108128;1272;68642;-69
2021/12/11 07:07:03;;;;;;;24.20;9.10;;;;;;;1.31;91.73;96716.92;108057;1271;69517;-67
2021/12/11 07:09:32;;;;;;;13.70;7.60;;;;;;;1.28;91.80;96718.45;108000;1271;59736;-73
2021/12/11 07:12:01;;;;;;;12.20;7.10;;;;;;;1.26;91.92;96722.50;107950;1274;59791;-69
2021/12/11 07:14:31;;;;;;;8.90;5.60;;;;;;;1.24;91.95;96720.50;108040;1272;70827;-68
2021/12/11 07:17:02;;;;;;;12.60;7.70;;;;;;;1.28;91.91;96725.66;108005;1272;67841;-71
2021/12/11 07:19:31;;;;;;;19.00;12.30;;;;;;;1.30;91.98;96732.59;108126;1272;68661;-73
2021/12/11 07:22:01;;;;;;;34.70;13.90;;;;;;;1.33;92.04;96737.44;108082;1268;59721;-73
2021/12/11 07:24:35;;;;;;;19.00;11.00;;;;;;;1.34;92.19;96744.27;108129;1272;59710;-71
2021/12/11 07:27:07;;;;;;;34.20;12.40;;;;;;;1.37;92.17;96754.58;108119;1272;71284;-67
2021/12/11 07:29:37;;;;;;;10.40;6.20;;;;;;;1.38;92.31;96757.11;108082;1271;66857;-69
2021/12/11 07:32:08;;;;;;;15.00;9.20;;;;;;;1.44;92.16;96758.40;108067;1272;68659;-69
2021/12/11 07:34:38;;;;;;;94.10;17.20;;;;;;;1.46;92.03;96759.85;108177;1272;59812;-67
2021/12/11 07:37:08;;;;;;;;;;;;;;;1.43;92.19;96768.21;108037;1272;59780;-69
2021/12/11 07:39:37;;;;;;;12.50;7.50;;;;;;;1.46;92.21;96770.98;108097;1272;72260;-68
2021/12/11 07:42:06;;;;;;;14.20;7.10;;;;;;;1.51;92.00;96768.69;108136;1272;68678;-68
2021/12/11 07:44:36;;;;;;;11.70;7.00;;;;;;;1.54;91.83;96772.19;108043;1273;68659;-73
2021/12/11 07:47:06;;;;;;;16.10;9.50;;;;;;;1.52;91.63;96775.36;108083;1272;59785;-68
2021/12/11 07:49:35;;;;;;;12.40;7.00;;;;;;;1.51;91.66;96777.09;108088;1272;59770;-72
2021/12/11 07:52:05;;;;;;;15.10;9.10;;;;;;;1.51;91.60;96782.95;108129;1270;69796;-71
2021/12/11 07:54:34;;;;;;;12.80;8.30;;;;;;;1.51;91.69;96787.23;108117;1272;68635;-67
2021/12/11 07:57:04;;;;;;;10.70;7.70;;;;;;;1.57;91.70;96785.80;108091;1271;69478;-69
2021/12/11 07:59:33;;;;;;;17.50;9.60;;;;;;;1.57;91.59;96780.81;107940;1275;59702;-72
2021/12/11 08:02:02;;;;;;;13.90;8.10;;;;;;;1.56;91.73;96784.45;108042;1272;59837;-68
2021/12/11 08:04:32;;;;;;;24.00;12.20;;;;;;;1.60;91.73;96786.87;108014;1272;70795;-79
2021/12/11 08:07:01;;;;;;;19.60;9.50;;;;;;;1.62;91.83;96793.45;108241;1269;69186;-68
2021/12/11 08:09:30;;;;;;;24.80;13.80;;;;;;;1.70;91.84;96794.96;108107;1272;69445;-67
2021/12/11 08:12:00;;;;;;;17.60;10.30;;;;;;;1.74;91.91;96798.90;108141;1272;59772;-71
2021/12/11 08:14:29;;;;;;;13.60;7.30;;;;;;;1.80;91.84;96796.71;108044;1272;59845;-68
2021/12/11 08:17:04;;;;;;;19.10;11.60;;;;;;;1.89;91.79;96800.95;108111;1272;70791;-71
2021/12/11 08:19:34;;;;;;;17.90;12.00;;;;;;;1.98;91.83;96809.24;108050;1272;67910;-71
2021/12/11 08:22:06;;;;;;;18.50;11.80;;;;;;;2.06;91.85;96808.20;108136;1270;69003;-69
2021/12/11 08:24:38;;;;;;;14.90;9.70;;;;;;;2.14;91.77;96809.67;107794;1274;59766;-74
2021/12/11 08:27:15;;;;;;;15.80;8.80;;;;;;;2.22;91.63;96812.03;108117;1272;59678;-70
2021/12/11 08:29:47;;;;;;;14.90;9.50;;;;;;;2.30;91.43;96818.19;108134;1271;70616;-72
2021/12/11 08:32:18;;;;;;;14.30;8.30;;;;;;;2.33;91.03;96827.50;108078;1271;68816;-68
2021/12/11 08:34:49;;;;;;;19.00;12.50;;;;;;;2.38;90.97;96829.00;108157;1274;68907;-72
2021/12/11 08:37:21;;;;;;;15.90;10.50;;;;;;;2.46;91.21;96830.64;108051;1275;59741;-72
2021/12/11 08:39:52;;;;;;;14.90;10.60;;;;;;;2.57;90.98;96826.30;108082;1271;59770;-70
2021/12/11 08:42:24;;;;;;;20.60;12.30;;;;;;;2.66;90.67;96828.95;107688;1272;618259;-73
2021/12/11 08:44:58;;;;;;;14.80;8.90;;;;;;;2.72;90.32;96823.68;108118;1271;67889;-69
2021/12/11 08:47:27;;;;;;;12.10;7.80;;;;;;;2.78;90.29;96819.88;108216;1272;69638;-78
2021/12/11 08:49:57;;;;;;;18.10;11.40;;;;;;;2.86;90.13;96819.14;107998;1275;59787;-71
2021/12/11 08:52:28;;;;;;;15.30;9.20;;;;;;;2.89;89.83;96808.66;108099;1272;59655;-74
2021/12/11 08:54:59;;;;;;;18.60;12.20;;;;;;;2.92;89.70;96795.59;108052;1272;70805;-72
2021/12/11 08:57:32;;;;;;;13.80;8.10;;;;;;;2.99;90.07;96789.70;108095;1270;68362;-72
2021/12/11 09:00:11;;;;;;;13.40;8.60;;;;;;;3.12;90.02;96786.30;108006;1273;68798;-75
2021/12/11 09:02:49;;;;;;;23.30;13.50;;;;;;;3.23;89.62;96780.88;108130;1272;59745;-72
2021/12/11 09:05:27;;;;;;;21.90;13.30;;;;;;;3.32;89.24;96777.14;107891;1274;59757;-75
2021/12/11 09:08:06;;;;;;;20.90;11.70;;;;;;;3.39;88.94;96779.67;108051;1272;71606;-73
2021/12/11 09:10:58;;;;;;;14.10;8.80;;;;;;;3.47;88.96;96778.87;107938;1274;68642;-74
2021/12/11 09:13:39;;;;;;;19.60;11.60;;;;;;;3.50;88.19;96773.03;108075;1272;67970;-76
2021/12/11 09:16:32;;;;;;;15.60;9.50;;;;;;;3.52;88.05;96774.52;108186;1272;59754;-71
2021/12/11 09:19:16;;;;;;;15.70;11.00;;;;;;;3.54;87.73;96767.31;108054;1271;59761;-75
2021/12/11 09:22:11;;;;;;;19.40;12.00;;;;;;;3.58;87.84;96760.36;107940;1271;71518;-76
2021/12/11 09:24:47;;;;;;;17.80;10.60;;;;;;;3.61;87.80;96753.70;108139;1272;67919;-76
2021/12/11 09:27:26;;;;;;;17.60;10.40;;;;;;;3.61;87.65;96752.83;108096;1272;69444;-72
2021/12/11 09:30:07;;;;;;;14.50;9.30;;;;;;;3.67;87.64;96746.79;108080;1272;59770;-68
2021/12/11 09:32:51;;;;;;;11.40;7.40;;;;;;;3.74;87.18;96741.41;108187;1272;59719;-68
2021/12/11 09:35:28;;;;;;;18.80;10.80;;;;;;;3.84;87.41;96738.79;108219;1272;71007;-71
2021/12/11 09:38:11;;;;;;;18.50;11.60;;;;;;;3.93;87.11;96743.64;108189;1274;68623;-72
2021/12/11 09:40:40;;;;;;;15.70;11.20;;;;;;;4.06;87.59;96736.81;107969;1274;67695;-68
2021/12/11 09:43:36;;;;;;;15.80;10.30;;;;;;;4.16;85.84;96736.23;108050;1272;59704;-68
2021/12/11 09:46:08;;;;;;;16.90;10.30;;;;;;;4.39;86.33;96743.52;108019;1275;59693;-69
2021/12/11 09:48:39;;;;;;;11.30;7.40;;;;;;;4.84;86.35;96743.98;108059;1272;71541;-73
2021/12/11 09:51:13;;;;;;;12.00;7.30;;;;;;;5.19;84.93;96750.83;108138;1271;66903;-68
2021/12/11 09:53:51;;;;;;;14.30;8.90;;;;;;;5.42;84.63;96750.26;108118;1272;68629;-69
2021/12/11 09:56:33;;;;;;;16.90;10.60;;;;;;;5.57;83.92;96746.35;108051;1272;59732;-73
2021/12/11 09:59:06;;;;;;;13.80;8.20;;;;;;;5.53;82.15;96742.78;108096;1272;59760;-71
2021/12/11 10:01:40;;;;;;;11.60;7.70;;;;;;;5.45;82.15;96735.38;108098;1273;71613;-69
2021/12/11 10:04:17;;;;;;;13.30;8.10;;;;;;;5.31;81.74;96731.95;108027;1271;66912;-73
2021/12/11 10:09:36;;;;;;;15.70;9.80;;;;;;;5.14;82.77;96731.13;108088;1271;59776;-69
2021/12/11 10:12:18;;;;;;;22.70;14.20;;;;;;;5.06;82.74;96734.01;108052;1272;59687;-69
2021/12/11 10:14:53;;;;;;;15.10;8.90;;;;;;;4.85;82.53;96731.11;108050;1272;71596;-73
2021/12/11 10:17:37;;;;;;;18.10;11.50;;;;;;;4.80;83.34;96726.73;108111;1272;68595;-74
2021/12/11 10:20:32;;;;;;;14.60;9.10;;;;;;;4.65;82.91;96721.81;108113;1272;70097;-69
2021/12/11 10:23:05;;;;;;;13.50;8.40;;;;;;;4.44;83.25;96714.63;108108;1272;59713;-73
2021/12/11 10:25:37;;;;;;;17.80;11.90;;;;;;;4.36;83.56;96706.79;108023;1272;59726;-72
2021/12/11 10:28:12;;;;;;;14.80;9.80;;;;;;;4.26;83.65;96707.05;108095;1275;70855;-71
2021/12/11 10:30:45;;;;;;;19.40;12.00;;;;;;;4.25;83.84;96709.02;107946;1272;68168;-75
2021/12/11 10:33:18;;;;;;;19.90;12.40;;;;;;;4.21;84.11;96706.29;107980;1272;69479;-71
2021/12/11 10:35:51;;;;;;;15.20;10.00;;;;;;;4.20;84.46;96702.56;108048;1272;60086;-73
2021/12/11 10:38:20;;;;;;;22.10;14.50;;;;;;;4.20;84.39;96700.52;108104;1272;59661;-72
2021/12/11 10:40:54;;;;;;;20.40;12.20;;;;;;;4.09;84.44;96699.94;108105;1272;72193;-68
2021/12/11 10:43:32;;;;;;;23.70;14.30;;;;;;;4.02;84.97;96702.75;108143;1272;68649;-69
2021/12/11 10:46:04;;;;;;;17.70;11.50;;;;;;;3.92;85.29;96697.31;108103;1272;69469;-70
2021/12/11 10:48:35;;;;;;;16.70;11.50;;;;;;;3.91;85.36;96696.99;108151;1275;59763;-71
2021/12/11 10:51:18;;;;;;;15.40;11.00;;;;;;;3.92;85.31;96700.59;108150;1272;59710;-69
2021/12/11 10:53:49;;;;;;;21.30;12.90;;;;;;;3.92;85.40;96703.15;108039;1274;71445;-69
2021/12/11 10:56:20;;;;;;;16.60;10.60;;;;;;;3.89;85.07;96701.08;108057;1272;68668;-69
2021/12/11 10:58:54;;;;;;;18.50;12.10;;;;;;;3.88;85.36;96699.92;108113;1272;69643;-72
2021/12/11 11:01:38;;;;;;;15.40;8.70;;;;;;;3.93;85.31;96705.66;108039;1275;59744;-69
2021/12/11 11:04:18;;;;;;;18.10;11.40;;;;;;;4.04;84.99;96711.56;108105;1272;59730;-71
2021/12/11 11:06:48;;;;;;;17.20;10.20;;;;;;;4.16;84.59;96714.00;108110;1271;70072;-70
2021/12/11 11:09:19;;;;;;;15.70;10.40;;;;;;;4.27;84.55;96719.03;108099;1272;67669;-67
2021/12/11 11:11:52;;;;;;;19.10;10.90;;;;;;;4.43;84.27;96726.23;108112;1272;70459;-69
2021/12/11 11:14:21;;;;;;;18.60;11.30;;;;;;;4.59;83.78;96723.04;108069;1272;59730;-67
2021/12/11 11:16:55;;;;;;;22.20;13.60;;;;;;;4.73;83.65;96721.52;108060;1272;59773;-69
2021/12/11 11:19:26;;;;;;;19.30;11.10;;;;;;;4.81;83.25;96721.55;108091;1272;71787;-68
2021/12/11 11:22:00;;;;;;;19.50;10.70;;;;;;;4.89;82.82;96722.45;108055;1275;68134;-68
2021/12/11 11:24:35;;;;;;;18.10;11.10;;;;;;;4.94;82.75;96720.56;108124;1272;68703;-72
2021/12/11 11:27:06;;;;;;;21.20;12.10;;;;;;;4.96;82.31;96714.11;108115;1272;59758;-70
2021/12/11 11:29:38;;;;;;;15.30;9.10;;;;;;;4.91;81.88;96710.56;108132;1272;59716;-73
2021/12/11 11:32:13;;;;;;;16.90;10.30;;;;;;;4.89;82.15;96707.73;108062;1272;72173;-76
2021/12/11 11:34:43;;;;;;;17.80;10.80;;;;;;;4.90;82.18;96706.48;108070;1274;67859;-68
2021/12/11 11:37:19;;;;;;;21.80;14.80;;;;;;;4.98;82.03;96706.88;108095;1272;68663;-68
2021/12/11 11:39:49;;;;;;;27.00;15.60;;;;;;;5.13;81.86;96704.18;108057;1272;59741;-72
2021/12/11 11:42:21;;;;;;;26.80;15.30;;;;;;;5.20;80.55;96703.45;108073;1272;59782;-73
2021/12/11 11:44:51;;;;;;;27.10;17.00;;;;;;;5.19;80.46;96701.08;108009;1273;71487;-72
2021/12/11 11:47:20;;;;;;;26.50;17.70;;;;;;;5.02;79.60;96698.13;107925;1275;68614;-76
2021/12/11 11:49:49;;;;;;;37.80;24.10;;;;;;;4.94;80.60;96697.12;108072;1274;68873;-72
2021/12/11 11:52:19;;;;;;;34.90;22.30;;;;;;;4.78;80.36;96695.15;108098;1272;59808;-72
2021/12/11 11:54:50;;;;;;;;;;;;;;;4.75;81.32;96691.34;108024;1275;59734;-71
2021/12/11 11:57:31;;;;;;;44.90;26.50;;;;;;;4.76;80.83;96686.43;108042;1274;71603;-70
2021/12/11 12:00:07;;;;;;;39.90;24.30;;;;;;;4.76;81.12;96688.36;108127;1274;69292;-72
2021/12/11 12:02:41;;;;;;;40.20;26.20;;;;;;;4.82;81.29;96690.57;108201;1272;69541;-73
2021/12/11 12:05:11;;;;;;;30.40;17.20;;;;;;;4.83;81.57;96696.18;108080;1272;59735;-72
2021/12/11 12:07:40;;;;;;;28.10;17.40;;;;;;;4.82;81.69;96698.65;108153;1272;59639;-72
2021/12/11 12:10:15;;;;;;;28.60;15.40;;;;;;;4.82;81.43;96701.10;108136;1274;71601;-68
2021/12/11 12:12:45;;;;;;;24.60;15.40;;;;;;;4.82;81.55;96696.77;108052;1275;67773;-68